Time;durP1;ratioP1;P1;durP2;ratioP2;P2;SDS_P1;SDS_P2;PMS_P1;PMS_P2;Temp;Humidity;BMP_temperature;BMP_pressure;BME280_temperature;BME280_humidity;BME280_pressure;Samples;Min_cycle;Max_cycle;Signal;HPM_P1;HPM_P2
2024/01/31 00:01:17;;;;;;;;;;;5.70;99.90;;;;;;5115203;27;19967;-71
2024/01/31 00:03:43;;;;;;;;;;;5.70;99.90;;;;;;5131534;27;19976;-71
2024/01/31 00:06:10;;;;;;;;;;;5.90;99.90;;;;;;5114147;27;19935;-71
2024/01/31 00:08:36;;;;;;;;;;;5.70;99.90;;;;;;5132171;27;19928;-71
2024/01/31 00:11:01;;;;;;;;;;;5.60;99.90;;;;;;5113715;27;19931;-71
2024/01/31 00:13:27;;;;;;;;;;;5.70;99.90;;;;;;5131713;27;20034;-72
2024/01/31 00:15:52;;;;;;;;;;;5.60;99.90;;;;;;5130802;27;20375;-71
2024/01/31 00:18:18;;;;;;;;;;;5.70;99.90;;;;;;5114036;27;19923;-71
2024/01/31 00:20:44;;;;;;;;;;;5.60;99.90;;;;;;5113116;27;19924;-70
2024/01/31 00:23:09;;;;;;;;;;;5.60;99.90;;;;;;5108746;27;19928;-71
2024/01/31 00:25:35;;;;;;;;;;;5.60;99.90;;;;;;5115400;27;19923;-72
2024/01/31 00:28:00;;;;;;;;;;;7.10;99.90;;;;;;5119726;27;20051;-71
2024/01/31 00:30:26;;;;;;;;;;;5.70;99.90;;;;;;5151977;27;19922;-71
2024/01/31 00:32:51;;;;;;;;;;;5.60;99.90;;;;;;5116729;27;20449;-71
2024/01/31 00:35:17;;;;;;;;;;;5.70;99.90;;;;;;5114220;27;19934;-70
2024/01/31 00:37:42;;;;;;;;;;;5.60;99.90;;;;;;5131701;27;19946;-71
2024/01/31 00:40:09;;;;;;;;;;;5.80;99.90;;;;;;5131404;27;19923;-71
2024/01/31 00:42:38;;;;;;;;;;;5.60;99.90;;;;;;5112471;27;20408;-71
2024/01/31 00:45:06;;;;;;;;;;;5.80;99.90;;;;;;5130291;27;19958;-71
2024/01/31 00:47:32;;;;;;;;;;;5.60;99.90;;;;;;5131840;27;19967;-70
2024/01/31 00:49:57;;;;;;;;;;;5.60;99.90;;;;;;5131191;27;19984;-71
2024/01/31 00:52:23;;;;;;;;;;;5.70;99.90;;;;;;5130644;27;19927;-71
2024/01/31 00:54:49;;;;;;;;;;;5.90;99.90;;;;;;5113304;27;19923;-71
2024/01/31 00:57:14;;;;;;;;;;;5.60;99.90;;;;;;5111468;27;19954;-71
2024/01/31 00:59:43;;;;;;;;;;;5.60;99.90;;;;;;5112492;27;20043;-71
2024/01/31 01:02:09;;;;;;;;;;;5.60;99.90;;;;;;5096489;27;19923;-70
2024/01/31 01:04:35;;;;;;;;;;;5.60;99.90;;;;;;5113321;27;19949;-70
2024/01/31 01:07:00;;;;;;;;;;;5.60;99.90;;;;;;5130032;27;19923;-71
2024/01/31 01:09:26;;;;;;;;;;;5.60;99.90;;;;;;5113009;27;20030;-71
2024/01/31 01:11:51;;;;;;;;;;;6.40;99.90;;;;;;5112230;27;19985;-71
2024/01/31 01:14:17;;;;;;;;;;;5.60;99.90;;;;;;5129187;27;19927;-72
2024/01/31 01:16:43;;;;;;;;;;;5.60;99.90;;;;;;5132993;27;19924;-71
2024/01/31 01:19:08;;;;;;;;;;;5.60;99.90;;;;;;5129983;27;20643;-71
2024/01/31 01:21:34;;;;;;;;;;;5.60;99.90;;;;;;5113098;27;20038;-70
2024/01/31 01:23:59;;;;;;;;;;;5.60;99.90;;;;;;5101554;27;19934;-71
2024/01/31 01:26:25;;;;;;;;;;;5.70;99.90;;;;;;5092610;28;19949;-70
2024/01/31 01:28:51;;;;;;;;;;;5.80;99.90;;;;;;5124923;27;19923;-70
2024/01/31 01:31:16;;;;;;;;;;;5.60;99.90;;;;;;5112461;27;19947;-71
2024/01/31 01:33:42;;;;;;;;;;;5.60;99.90;;;;;;5130207;27;19946;-71
2024/01/31 01:36:07;;;;;;;;;;;5.60;99.90;;;;;;5130712;27;19941;-71
2024/01/31 01:38:33;;;;;;;;;;;5.60;99.90;;;;;;5131276;27;19924;-71
2024/01/31 01:40:58;;;;;;;;;;;5.60;99.90;;;;;;5129802;27;20386;-71
2024/01/31 01:43:24;;;;;;;;;;;5.60;99.90;;;;;;5130239;27;19924;-71
2024/01/31 01:45:53;;;;;;;;;;;5.60;99.90;;;;;;5110750;27;19931;-71
2024/01/31 01:48:19;;;;;;;;;;;5.60;99.90;;;;;;5142076;27;19923;-71
2024/01/31 01:50:45;;;;;;;;;;;5.60;99.90;;;;;;5132528;27;19927;-71
2024/01/31 01:53:11;;;;;;;;;;;5.60;99.90;;;;;;5114425;27;19967;-71
2024/01/31 01:55:37;;;;;;;;;;;5.50;99.90;;;;;;5129467;27;19997;-71
2024/01/31 01:58:02;;;;;;;;;;;5.50;99.90;;;;;;5129033;27;20411;-71
2024/01/31 02:00:28;;;;;;;;;;;5.50;99.90;;;;;;5130465;27;19969;-71
2024/01/31 02:02:54;;;;;;;;;;;5.60;99.90;;;;;;5129364;28;20064;-71
2024/01/31 02:05:20;;;;;;;;;;;5.50;99.90;;;;;;5112244;28;20017;-71
2024/01/31 02:07:45;;;;;;;;;;;5.40;99.90;;;;;;5130408;27;19927;-71
2024/01/31 02:10:11;;;;;;;;;;;5.40;99.90;;;;;;5129829;28;19931;-71
2024/01/31 02:12:36;;;;;;;;;;;5.40;99.90;;;;;;5129853;28;19923;-71
2024/01/31 02:15:02;;;;;;;;;;;5.40;99.90;;;;;;5128730;28;20391;-71
2024/01/31 02:17:28;;;;;;;;;;;5.40;99.90;;;;;;5128762;28;20315;-71
2024/01/31 02:19:53;;;;;;;;;;;5.40;99.90;;;;;;5111710;28;20409;-71
2024/01/31 02:22:19;;;;;;;;;;;5.40;99.90;;;;;;5129263;28;20321;-71
2024/01/31 02:24:45;;;;;;;;;;;5.30;99.90;;;;;;5110241;28;19923;-71
2024/01/31 02:27:10;;;;;;;;;;;5.60;99.90;;;;;;5134611;27;19923;-71
2024/01/31 02:29:37;;;;;;;;;;;5.30;99.90;;;;;;5117938;28;19928;-71
2024/01/31 02:32:03;;;;;;;;;;;5.30;99.90;;;;;;5130108;28;20299;-71
2024/01/31 02:34:29;;;;;;;;;;;5.30;99.90;;;;;;5130536;28;19923;-71
2024/01/31 02:36:54;;;;;;;;;;;5.30;99.90;;;;;;5110436;28;20030;-71
2024/01/31 02:39:20;;;;;;;;;;;5.30;99.90;;;;;;5112074;28;20359;-71
2024/01/31 02:41:45;;;;;;;;;;;5.30;99.90;;;;;;5111616;28;20279;-71
2024/01/31 02:44:11;;;;;;;;;;;5.20;99.90;;;;;;5112039;27;19927;-71
2024/01/31 02:46:39;;;;;;;;;;;5.20;99.90;;;;;;5115135;27;20011;-71
2024/01/31 02:49:07;;;;;;;;;;;5.20;99.90;;;;;;5115696;27;20520;-71
2024/01/31 02:51:34;;;;;;;;;;;5.20;99.90;;;;;;5115105;27;20454;-71
2024/01/31 02:53:59;;;;;;;;;;;5.20;99.90;;;;;;5115088;27;20294;-71
2024/01/31 02:56:25;;;;;;;;;;;5.30;99.90;;;;;;5115795;27;19923;-71
2024/01/31 02:58:50;;;;;;;;;;;5.10;99.90;;;;;;5113092;27;20059;-71
2024/01/31 03:01:16;;;;;;;;;;;5.10;99.90;;;;;;5132680;27;19924;-71
2024/01/31 03:03:41;;;;;;;;;;;5.30;99.90;;;;;;5115387;27;20302;-71
2024/01/31 03:06:07;;;;;;;;;;;5.20;99.90;;;;;;5114266;27;19938;-71
2024/01/31 03:08:32;;;;;;;;;;;5.10;99.90;;;;;;5114886;27;19931;-71
2024/01/31 03:10:58;;;;;;;;;;;5.10;99.90;;;;;;5115444;27;19923;-71
2024/01/31 03:13:23;;;;;;;;;;;5.10;99.90;;;;;;5113594;27;19923;-71
2024/01/31 03:15:49;;;;;;;;;;;5.10;99.90;;;;;;5114721;27;20382;-71
2024/01/31 03:18:14;;;;;;;;;;;5.10;99.90;;;;;;5115263;27;19924;-71
2024/01/31 03:20:40;;;;;;;;;;;5.10;99.90;;;;;;5114665;27;20275;-71
2024/01/31 03:23:05;;;;;;;;;;;5.10;99.90;;;;;;5114417;27;20504;-71
2024/01/31 03:25:31;;;;;;;;;;;5.10;99.90;;;;;;5133046;27;19927;-71
2024/01/31 03:27:56;;;;;;;;;;;5.10;99.90;;;;;;5123499;27;19923;-71
2024/01/31 03:30:22;;;;;;;;;;;5.10;99.90;;;;;;5110788;28;19923;-71
2024/01/31 03:32:47;;;;;;;;;;;5.10;99.90;;;;;;5112918;27;19969;-71
2024/01/31 03:35:13;;;;;;;;;;;5.00;99.90;;;;;;5115073;27;19935;-71
2024/01/31 03:37:39;;;;;;;;;;;5.10;99.90;;;;;;5114662;27;19923;-71
2024/01/31 03:40:05;;;;;;;;;;;5.10;99.90;;;;;;5113220;27;19933;-71
2024/01/31 03:42:31;;;;;;;;;;;5.10;99.90;;;;;;5113454;27;20030;-71
2024/01/31 03:44:57;;;;;;;;;;;5.10;99.90;;;;;;5113794;27;20327;-71
2024/01/31 03:47:22;;;;;;;;;;;5.10;99.90;;;;;;5132135;27;19931;-71
2024/01/31 03:49:49;;;;;;;;;;;5.10;99.90;;;;;;5114003;27;20361;-71
2024/01/31 03:52:15;;;;;;;;;;;5.10;99.90;;;;;;5113833;27;19923;-71
2024/01/31 03:54:40;;;;;;;;;;;5.10;99.90;;;;;;5112573;27;20155;-71
2024/01/31 03:57:06;;;;;;;;;;;5.10;99.90;;;;;;5112458;27;19923;-71
2024/01/31 03:59:31;;;;;;;;;;;5.10;99.90;;;;;;5111723;27;19936;-71
2024/01/31 04:01:57;;;;;;;;;;;5.10;99.90;;;;;;5111478;27;20010;-71
2024/01/31 04:04:22;;;;;;;;;;;5.10;99.90;;;;;;5099748;28;19993;-71
2024/01/31 04:06:48;;;;;;;;;;;5.10;99.90;;;;;;5110193;27;20350;-72
2024/01/31 04:09:13;;;;;;;;;;;5.10;99.90;;;;;;5131363;27;19923;-71
2024/01/31 04:11:39;;;;;;;;;;;5.10;99.90;;;;;;5114123;27;19923;-71
2024/01/31 04:14:04;;;;;;;;;;;5.10;99.90;;;;;;5131070;27;19927;-71
2024/01/31 04:16:30;;;;;;;;;;;5.10;99.90;;;;;;5113828;27;20343;-71
2024/01/31 04:18:55;;;;;;;;;;;5.00;99.90;;;;;;5113771;27;20546;-71
2024/01/31 04:21:22;;;;;;;;;;;5.00;99.90;;;;;;5153987;27;20071;-71
2024/01/31 04:23:47;;;;;;;;;;;4.90;99.90;;;;;;5142679;27;20017;-71
2024/01/31 04:26:13;;;;;;;;;;;4.90;99.90;;;;;;5131467;27;19962;-71
2024/01/31 04:28:39;;;;;;;;;;;4.80;99.90;;;;;;5109328;27;19923;-71
2024/01/31 04:31:04;;;;;;;;;;;4.80;99.90;;;;;;5112900;27;20072;-71
2024/01/31 04:33:29;;;;;;;;;;;5.00;99.90;;;;;;5132291;27;19979;-71
2024/01/31 04:35:55;;;;;;;;;;;5.70;99.90;;;;;;5112924;27;19930;-71
2024/01/31 04:38:21;;;;;;;;;;;4.60;99.90;;;;;;5114036;27;20031;-71
2024/01/31 04:40:46;;;;;;;;;;;4.60;99.90;;;;;;5113200;27;19930;-71
2024/01/31 04:43:15;;;;;;;;;;;4.60;99.90;;;;;;5111928;27;19927;-71
2024/01/31 04:45:41;;;;;;;;;;;4.50;99.90;;;;;;5113444;27;20294;-71
2024/01/31 04:48:06;;;;;;;;;;;4.50;99.90;;;;;;5131477;27;19923;-71
2024/01/31 04:50:32;;;;;;;;;;;4.40;99.90;;;;;;5131315;27;20414;-71
2024/01/31 04:52:57;;;;;;;;;;;4.40;99.90;;;;;;5097444;27;20317;-71
2024/01/31 04:55:23;;;;;;;;;;;4.40;99.90;;;;;;5131480;27;19931;-71
2024/01/31 04:57:48;;;;;;;;;;;4.40;99.90;;;;;;5110799;27;19930;-71
2024/01/31 05:00:15;;;;;;;;;;;4.30;99.90;;;;;;5133718;27;19923;-71
2024/01/31 05:02:40;;;;;;;;;;;4.30;99.90;;;;;;5116459;27;19930;-71
2024/01/31 05:05:06;;;;;;;;;;;4.30;99.90;;;;;;5111350;27;19923;-71
2024/01/31 05:07:31;;;;;;;;;;;4.30;99.90;;;;;;5110094;27;19928;-71
2024/01/31 05:09:57;;;;;;;;;;;4.30;99.90;;;;;;5111943;27;19929;-71
2024/01/31 05:12:23;;;;;;;;;;;4.20;99.90;;;;;;5129473;27;19930;-71
2024/01/31 05:14:48;;;;;;;;;;;4.20;99.90;;;;;;5112430;27;20343;-71
2024/01/31 05:17:15;;;;;;;;;;;4.20;99.90;;;;;;5113228;27;19923;-71
2024/01/31 05:19:41;;;;;;;;;;;4.20;99.90;;;;;;5112627;27;20467;-71
2024/01/31 05:22:07;;;;;;;;;;;5.40;99.90;;;;;;5112114;27;19930;-71
2024/01/31 05:24:33;;;;;;;;;;;4.20;99.90;;;;;;5126644;27;19923;-71
2024/01/31 05:27:04;;;;;;;;;;;4.20;99.90;;;;;;5110197;27;19923;-71
2024/01/31 05:29:29;;;;;;;;;;;4.20;99.90;;;;;;5113676;27;19936;-71
2024/01/31 05:31:55;;;;;;;;;;;4.20;99.90;;;;;;5107626;27;19923;-71
2024/01/31 05:34:22;;;;;;;;;;;4.20;99.90;;;;;;5112044;27;19962;-70
2024/01/31 05:36:51;;;;;;;;;;;4.30;99.90;;;;;;5130607;27;20056;-71
2024/01/31 05:39:16;;;;;;;;;;;4.30;99.90;;;;;;5110101;27;20020;-71
2024/01/31 05:41:45;;;;;;;;;;;4.30;99.90;;;;;;5130308;27;19973;-71
2024/01/31 05:44:11;;;;;;;;;;;4.30;99.90;;;;;;5111286;27;20002;-71
2024/01/31 05:46:36;;;;;;;;;;;4.30;99.90;;;;;;5130405;27;20002;-71
2024/01/31 05:49:02;;;;;;;;;;;4.30;99.90;;;;;;5111602;27;20393;-71
2024/01/31 05:51:28;;;;;;;;;;;4.60;99.90;;;;;;5112061;28;19930;-71
2024/01/31 05:53:53;;;;;;;;;;;4.40;99.90;;;;;;5110665;27;20317;-71
2024/01/31 05:56:19;;;;;;;;;;;4.40;99.90;;;;;;5112563;27;19953;-71
2024/01/31 05:58:44;;;;;;;;;;;4.40;99.90;;;;;;5128908;27;19927;-71
2024/01/31 06:01:10;;;;;;;;;;;4.40;99.90;;;;;;5102437;28;19984;-71
2024/01/31 06:03:35;;;;;;;;;;;4.40;99.90;;;;;;5090646;28;20428;-71
2024/01/31 06:06:01;;;;;;;;;;;4.90;99.90;;;;;;5118742;28;19927;-71
2024/01/31 06:08:26;;;;;;;;;;;4.50;99.90;;;;;;5128580;28;19924;-71
2024/01/31 06:10:59;;;;;;;;;;;4.50;99.90;;;;;;5110774;28;19949;-71
2024/01/31 06:13:25;;;;;;;;;;;4.50;99.90;;;;;;5111199;28;19924;-71
2024/01/31 06:15:50;;;;;;;;;;;4.50;99.90;;;;;;5109967;28;19973;-71
2024/01/31 06:18:16;;;;;;;;;;;4.60;99.90;;;;;;5113351;27;19923;-71
2024/01/31 06:20:43;;;;;;;;;;;4.60;99.90;;;;;;5116361;27;19970;-71
2024/01/31 06:23:10;;;;;;;;;;;4.60;99.90;;;;;;5115020;27;19927;-71
2024/01/31 06:25:36;;;;;;;;;;;4.60;99.90;;;;;;5116397;27;19930;-71
2024/01/31 06:28:01;;;;;;;;;;;4.60;99.90;;;;;;5111103;28;20383;-71
2024/01/31 06:30:31;;;;;;;;;;;4.60;99.90;;;;;;5121842;27;19928;-71
2024/01/31 06:33:05;;;;;;;;;;;4.70;99.90;;;;;;5095210;28;19959;-71
2024/01/31 06:35:32;;;;;;;;;;;4.60;99.90;;;;;;5095051;28;19928;-71
2024/01/31 06:37:57;;;;;;;;;;;4.70;99.90;;;;;;5118553;27;20297;-71
2024/01/31 06:40:23;;;;;;;;;;;4.70;99.90;;;;;;5115998;27;19931;-71
2024/01/31 06:42:49;;;;;;;;;;;4.70;99.90;;;;;;5114108;27;20395;-71
2024/01/31 06:45:15;;;;;;;;;;;4.70;99.90;;;;;;5133477;27;20006;-71
2024/01/31 06:47:40;;;;;;;;;;;4.70;99.90;;;;;;5106859;27;19972;-71
2024/01/31 06:50:06;;;;;;;;;;;4.70;99.90;;;;;;5114179;27;19927;-71
2024/01/31 06:52:31;;;;;;;;;;;4.80;99.90;;;;;;5111598;27;19928;-71
2024/01/31 06:54:57;;;;;;;;;;;4.80;99.90;;;;;;5115130;27;19924;-71
2024/01/31 06:57:22;;;;;;;;;;;4.80;99.90;;;;;;5114003;27;20294;-71
2024/01/31 06:59:48;;;;;;;;;;;4.80;99.90;;;;;;5115337;27;19931;-71
2024/01/31 07:02:13;;;;;;;;;;;4.80;99.90;;;;;;5115846;27;19930;-71
2024/01/31 07:04:39;;;;;;;;;;;4.80;99.90;;;;;;5133142;27;20486;-71
2024/01/31 07:07:04;;;;;;;;;;;4.90;99.90;;;;;;5133217;27;19927;-71
2024/01/31 07:09:32;;;;;;;;;;;4.90;99.90;;;;;;5113728;27;19924;-71
2024/01/31 07:11:57;;;;;;;;;;;4.90;99.90;;;;;;5102226;27;19923;-71
2024/01/31 07:14:23;;;;;;;;;;;4.90;99.90;;;;;;5113459;28;19923;-71
2024/01/31 07:16:48;;;;;;;;;;;4.90;99.90;;;;;;5113711;28;20294;-71
2024/01/31 07:19:14;;;;;;;;;;;4.90;99.90;;;;;;5111140;28;20442;-71
2024/01/31 07:21:39;;;;;;;;;;;4.90;99.90;;;;;;5113043;28;19924;-71
2024/01/31 07:24:05;;;;;;;;;;;5.20;99.90;;;;;;5112827;28;19923;-71
2024/01/31 07:26:30;;;;;;;;;;;5.00;99.90;;;;;;5112268;28;19968;-71
2024/01/31 07:28:56;;;;;;;;;;;4.90;99.90;;;;;;5112199;27;19923;-71
2024/01/31 07:31:22;;;;;;;;;;;5.00;99.90;;;;;;5109724;28;19924;-71
2024/01/31 07:33:47;;;;;;;;;;;5.00;99.90;;;;;;5129915;28;19930;-71
2024/01/31 07:36:13;;;;;;;;;;;5.00;99.90;;;;;;5113461;28;20430;-71
2024/01/31 07:38:45;;;;;;;;;;;5.00;99.90;;;;;;5130422;28;19946;-71
2024/01/31 07:41:11;;;;;;;;;;;5.00;99.90;;;;;;5113376;28;19977;-71
2024/01/31 07:43:37;;;;;;;;;;;5.00;99.90;;;;;;5112533;28;19924;-71
2024/01/31 07:46:06;;;;;;;;;;;5.00;99.90;;;;;;5111845;28;20373;-71
2024/01/31 07:48:31;;;;;;;;;;;5.00;99.90;;;;;;5131816;28;19935;-71
2024/01/31 07:50:57;;;;;;;;;;;5.00;99.90;;;;;;5111816;28;20280;-72
2024/01/31 07:53:23;;;;;;;;;;;5.00;99.90;;;;;;5112596;28;20272;-72
2024/01/31 07:55:48;;;;;;;;;;;5.20;99.90;;;;;;5113224;28;19924;-72
2024/01/31 07:58:14;;;;;;;;;;;5.00;99.90;;;;;;5112208;28;19923;-71
2024/01/31 08:00:40;;;;;;;;;;;5.00;99.90;;;;;;5113061;28;20439;-71
2024/01/31 08:03:05;;;;;;;;;;;5.00;99.90;;;;;;5112203;28;19934;-71
2024/01/31 08:05:31;;;;;;;;;;;5.10;99.90;;;;;;5113370;28;20007;-71
2024/01/31 08:07:56;;;;;;;;;;;5.10;99.90;;;;;;5111024;28;20466;-71
2024/01/31 08:10:22;;;;;;;;;;;5.40;99.90;;;;;;5113326;28;20096;-71
2024/01/31 08:12:48;;;;;;;;;;;5.10;99.90;;;;;;5047845;27;1774372;-74
2024/01/31 08:15:13;;;;;;;;;;;5.20;99.90;;;;;;5112585;27;19923;-71
2024/01/31 08:17:39;;;;;;;;;;;5.10;99.90;;;;;;5114418;27;19929;-70
2024/01/31 08:20:06;;;;;;;;;;;5.10;99.90;;;;;;5132512;27;20010;-70
2024/01/31 08:22:33;;;;;;;;;;;5.20;99.90;;;;;;5113097;27;19939;-70
2024/01/31 08:24:59;;;;;;;;;;;5.20;99.90;;;;;;5112878;27;19959;-71
2024/01/31 08:27:24;;;;;;;;;;;5.20;99.90;;;;;;5112478;27;20015;-70
2024/01/31 08:29:50;;;;;;;;;;;5.20;99.90;;;;;;5112324;27;19927;-71
2024/01/31 08:32:16;;;;;;;;;;;5.30;99.90;;;;;;5101843;27;19998;-71
2024/01/31 08:34:41;;;;;;;;;;;5.30;99.90;;;;;;5131822;27;19935;-70
2024/01/31 08:37:07;;;;;;;;;;;5.30;99.90;;;;;;5112621;27;19924;-70
2024/01/31 08:39:32;;;;;;;;;;;5.30;99.90;;;;;;5112553;27;19924;-70
2024/01/31 08:41:58;;;;;;;;;;;5.30;99.90;;;;;;5130172;27;19976;-70
2024/01/31 08:44:23;;;;;;;;;;;6.50;99.90;;;;;;5130142;27;19927;-71
2024/01/31 08:46:49;;;;;;;;;;;5.40;99.90;;;;;;5112818;27;19927;-71
2024/01/31 08:49:14;;;;;;;;;;;5.40;99.90;;;;;;5123929;27;19930;-71
2024/01/31 08:51:40;;;;;;;;;;;5.40;99.90;;;;;;5107967;28;19966;-70
2024/01/31 08:54:06;;;;;;;;;;;5.50;99.90;;;;;;5111953;27;19923;-71
2024/01/31 08:56:32;;;;;;;;;;;5.50;99.90;;;;;;5111849;27;19927;-71
2024/01/31 08:58:58;;;;;;;;;;;5.50;99.90;;;;;;5111728;27;20336;-71
2024/01/31 09:01:23;;;;;;;;;;;5.50;99.90;;;;;;5113139;27;19969;-71
2024/01/31 09:03:49;;;;;;;;;;;5.60;99.90;;;;;;5111425;27;19976;-71
2024/01/31 09:06:15;;;;;;;;;;;5.60;99.90;;;;;;5102749;27;19924;-70
2024/01/31 09:08:40;;;;;;;;;;;5.60;99.90;;;;;;5133690;27;20410;-70
2024/01/31 09:11:06;;;;;;;;;;;5.70;99.90;;;;;;5124737;27;19924;-71
2024/01/31 09:13:31;;;;;;;;;;;5.70;99.90;;;;;;5129856;27;20387;-70
2024/01/31 09:15:57;;;;;;;;;;;5.80;99.90;;;;;;5111554;27;19924;-71
2024/01/31 09:18:22;;;;;;;;;;;6.00;99.90;;;;;;5130218;27;19980;-71
2024/01/31 09:20:48;;;;;;;;;;;5.80;99.90;;;;;;5112540;27;19927;-71
2024/01/31 09:23:13;;;;;;;;;;;7.00;99.90;;;;;;5112568;27;20235;-70
2024/01/31 09:25:39;;;;;;;;;;;5.90;99.90;;;;;;5111959;27;19931;-70
2024/01/31 09:28:05;;;;;;;;;;;5.90;99.90;;;;;;5127105;27;19927;-71
2024/01/31 09:30:30;;;;;;;;;;;6.00;99.90;;;;;;5130668;27;20056;-71
2024/01/31 09:32:56;;;;;;;;;;;6.00;99.90;;;;;;5126058;27;19923;-71
2024/01/31 09:35:21;;;;;;;;;;;6.00;99.90;;;;;;5111425;27;20014;-71
2024/01/31 09:37:47;;;;;;;;;;;6.30;99.90;;;;;;5113946;27;19923;-70
2024/01/31 09:40:15;;;;;;;;;;;6.20;99.90;;;;;;5090130;28;19928;-70
2024/01/31 09:42:44;;;;;;;;;;;6.10;99.90;;;;;;5098088;28;19930;-71
2024/01/31 09:45:11;;;;;;;;;;;6.10;99.90;;;;;;5091799;28;19924;-71
2024/01/31 09:47:38;;;;;;;;;;;6.10;99.90;;;;;;5129137;27;19932;-71
2024/01/31 09:50:04;;;;;;;;;;;6.10;99.90;;;;;;5126306;27;20382;-71
2024/01/31 09:52:30;;;;;;;;;;;6.10;99.90;;;;;;5108421;27;19931;-70
2024/01/31 09:54:57;;;;;;;;;;;6.20;99.90;;;;;;5111955;27;19923;-70
2024/01/31 09:57:23;;;;;;;;;;;6.20;99.90;;;;;;5111369;27;20309;-71
2024/01/31 09:59:49;;;;;;;;;;;6.20;99.90;;;;;;5127614;27;19936;-71
2024/01/31 10:02:15;;;;;;;;;;;6.20;99.90;;;;;;5110972;27;19931;-71
2024/01/31 10:04:44;;;;;;;;;;;6.20;99.90;;;;;;5112323;28;19927;-71
2024/01/31 10:07:10;;;;;;;;;;;6.30;99.90;;;;;;5111111;28;19934;-70
2024/01/31 10:09:35;;;;;;;;;;;6.30;99.90;;;;;;5112208;28;19923;-70
2024/01/31 10:12:01;;;;;;;;;;;6.50;99.90;;;;;;5111176;28;20389;-71
2024/01/31 10:14:26;;;;;;;;;;;6.30;99.90;;;;;;5129862;28;19930;-70
2024/01/31 10:16:52;;;;;;;;;;;6.30;99.90;;;;;;5111708;28;19924;-70
2024/01/31 10:19:18;;;;;;;;;;;6.40;99.90;;;;;;5111046;28;20386;-70
2024/01/31 10:21:43;;;;;;;;;;;6.40;99.90;;;;;;5110720;28;20397;-70
2024/01/31 10:24:09;;;;;;;;;;;6.40;99.90;;;;;;5130094;28;19924;-71
2024/01/31 10:26:35;;;;;;;;;;;6.50;99.90;;;;;;5111449;28;19930;-71
2024/01/31 10:29:01;;;;;;;;;;;6.40;99.90;;;;;;5110197;28;20401;-71
2024/01/31 10:31:30;;;;;;;;;;;6.50;99.90;;;;;;5112348;28;20014;-70
2024/01/31 10:33:57;;;;;;;;;;;6.50;99.90;;;;;;5107993;28;20267;-71
2024/01/31 10:36:23;;;;;;;;;;;6.50;99.90;;;;;;5111709;28;19969;-71
2024/01/31 10:38:49;;;;;;;;;;;6.60;99.90;;;;;;5111319;28;20011;-71
2024/01/31 10:41:19;;;;;;;;;;;6.50;99.90;;;;;;5130532;28;19923;-71
2024/01/31 10:43:47;;;;;;;;;;;6.60;99.90;;;;;;5109867;28;19972;-71
2024/01/31 10:46:12;;;;;;;;;;;6.80;99.90;;;;;;5112052;28;19934;-70
2024/01/31 10:48:38;;;;;;;;;;;6.70;99.90;;;;;;5129918;28;20294;-71
2024/01/31 10:51:05;;;;;;;;;;;7.00;99.90;;;;;;5100057;28;19927;-71
2024/01/31 10:53:30;;;;;;;;;;;6.80;99.90;;;;;;5123621;28;20350;-71
2024/01/31 10:55:57;;;;;;;;;;;6.80;99.90;;;;;;5110735;28;20369;-70
2024/01/31 10:58:22;;;;;;;;;;;6.90;99.90;;;;;;5110909;28;19923;-71
2024/01/31 11:00:48;;;;;;;;;;;6.80;99.90;;;;;;5111019;28;20010;-71
2024/01/31 11:03:15;;;;;;;;;;;7.00;99.90;;;;;;5129632;28;19931;-71
2024/01/31 11:05:41;;;;;;;;;;;6.90;99.90;;;;;;5115927;27;20374;-71
2024/01/31 11:08:19;;;;;;;;;;;6.90;99.90;;;;;;5115882;27;19931;-70
2024/01/31 11:10:45;;;;;;;;;;;6.90;99.90;;;;;;5116542;27;19923;-71
2024/01/31 11:13:11;;;;;;;;;;;6.90;99.90;;;;;;5114324;27;19934;-70
2024/01/31 11:15:36;;;;;;;;;;;7.10;99.90;;;;;;5133588;27;20431;-70
2024/01/31 11:18:12;;;;;;;;;;;7.00;99.90;;;;;;5114310;27;20367;-70
2024/01/31 11:20:38;;;;;;;;;;;7.00;99.90;;;;;;5114215;27;19923;-70
2024/01/31 11:23:05;;;;;;;;;;;7.00;99.90;;;;;;5131956;27;19950;-70
2024/01/31 11:25:34;;;;;;;;;;;7.00;99.90;;;;;;5114556;27;20022;-70
2024/01/31 11:28:00;;;;;;;;;;;7.00;99.90;;;;;;5113766;27;19977;-71
2024/01/31 11:30:26;;;;;;;;;;;7.00;99.90;;;;;;5114948;27;19919;-70
2024/01/31 11:32:51;;;;;;;;;;;7.00;99.90;;;;;;5113826;27;19923;-70
2024/01/31 11:35:17;;;;;;;;;;;7.10;99.90;;;;;;5111565;27;20355;-70
2024/01/31 11:37:42;;;;;;;;;;;7.10;99.90;;;;;;5114444;27;20268;-71
2024/01/31 11:40:09;;;;;;;;;;;7.10;99.90;;;;;;5113698;27;20346;-71
2024/01/31 11:42:34;;;;;;;;;;;7.10;99.90;;;;;;5113997;27;19955;-71
2024/01/31 11:45:00;;;;;;;;;;;7.10;99.90;;;;;;5113531;27;19981;-70
2024/01/31 11:47:26;;;;;;;;;;;7.10;99.90;;;;;;5113144;27;19931;-71
2024/01/31 11:49:51;;;;;;;;;;;7.10;99.90;;;;;;5114258;27;19975;-71
2024/01/31 11:52:16;;;;;;;;;;;7.20;99.90;;;;;;5102579;28;19997;-71
2024/01/31 11:54:43;;;;;;;;;;;7.20;99.90;;;;;;5110945;28;19930;-70
2024/01/31 11:57:09;;;;;;;;;;;7.20;99.90;;;;;;5125176;27;20017;-70
2024/01/31 11:59:34;;;;;;;;;;;7.10;99.90;;;;;;5113780;27;20039;-70
2024/01/31 12:02:00;;;;;;;;;;;7.20;99.90;;;;;;5113598;27;19928;-71
2024/01/31 12:04:25;;;;;;;;;;;7.30;99.90;;;;;;5114399;27;19982;-71
2024/01/31 12:07:01;;;;;;;;;;;7.10;99.90;;;;;;5131370;27;19980;-71
2024/01/31 12:09:26;;;;;;;;;;;7.20;99.90;;;;;;5133127;27;19930;-70
2024/01/31 12:11:52;;;;;;;;;;;7.50;99.90;;;;;;5113536;27;19927;-70
2024/01/31 12:14:17;;;;;;;;;;;7.20;99.90;;;;;;5131484;27;20378;-70
2024/01/31 12:16:43;;;;;;;;;;;7.20;99.90;;;;;;5112054;27;20006;-70
2024/01/31 12:19:10;;;;;;;;;;;7.20;99.90;;;;;;5113654;27;19927;-71
2024/01/31 12:21:39;;;;;;;;;;;7.20;99.90;;;;;;5113175;27;19934;-70
2024/01/31 12:24:05;;;;;;;;;;;7.20;99.90;;;;;;5130981;27;19928;-70
2024/01/31 12:26:31;;;;;;;;;;;7.20;99.90;;;;;;5114149;27;19976;-70
2024/01/31 12:28:56;;;;;;;;;;;7.30;99.90;;;;;;5111545;27;19929;-70
2024/01/31 12:31:22;;;;;;;;;;;7.20;99.90;;;;;;5132642;27;20013;-71
2024/01/31 12:33:48;;;;;;;;;;;7.10;99.90;;;;;;5131816;27;20002;-70
2024/01/31 12:36:13;;;;;;;;;;;7.10;99.90;;;;;;5109694;27;20491;-70
2024/01/31 12:38:39;;;;;;;;;;;7.10;99.90;;;;;;5131850;27;20166;-71
2024/01/31 12:41:04;;;;;;;;;;;7.10;99.90;;;;;;5113839;27;20018;-70
2024/01/31 12:43:30;;;;;;;;;;;7.10;99.90;;;;;;5112199;27;20080;-70
2024/01/31 12:45:56;;;;;;;;;;;7.10;99.90;;;;;;5131337;27;19987;-71
2024/01/31 12:48:21;;;;;;;;;;;7.10;99.90;;;;;;5108086;28;19923;-70
2024/01/31 12:50:47;;;;;;;;;;;7.10;99.90;;;;;;5093243;28;19963;-70
2024/01/31 12:53:12;;;;;;;;;;;7.20;99.90;;;;;;5100385;28;20306;-71
2024/01/31 12:55:38;;;;;;;;;;;7.10;99.90;;;;;;5091313;28;19923;-70
2024/01/31 12:58:03;;;;;;;;;;;7.20;99.90;;;;;;5109794;28;20457;-70
2024/01/31 13:00:29;;;;;;;;;;;7.20;99.90;;;;;;5111415;28;19930;-70
2024/01/31 13:02:54;;;;;;;;;;;7.20;99.90;;;;;;5091407;28;19927;-70
2024/01/31 13:05:20;;;;;;;;;;;7.20;99.90;;;;;;5111648;27;19947;-70
2024/01/31 13:07:45;;;;;;;;;;;7.20;99.90;;;;;;5113142;27;20401;-70
2024/01/31 13:10:11;;;;;;;;;;;7.20;99.90;;;;;;5130722;27;19927;-70
2024/01/31 13:12:36;;;;;;;;;;;7.20;99.90;;;;;;5130504;27;19923;-70
2024/01/31 13:15:02;;;;;;;;;;;7.20;99.90;;;;;;5112377;27;19927;-70
2024/01/31 13:17:27;;;;;;;;;;;7.20;99.90;;;;;;5111219;27;19927;-70
2024/01/31 13:19:53;;;;;;;;;;;7.20;99.90;;;;;;5130768;27;19924;-70
2024/01/31 13:22:18;;;;;;;;;;;7.30;99.90;;;;;;5131044;27;19923;-71
2024/01/31 13:24:44;;;;;;;;;;;7.20;99.90;;;;;;5111118;27;19923;-71
2024/01/31 13:27:10;;;;;;;;;;;7.20;99.90;;;;;;5110712;27;19924;-70
2024/01/31 13:29:35;;;;;;;;;;;7.30;99.90;;;;;;5112607;27;20099;-70
2024/01/31 13:32:01;;;;;;;;;;;7.20;99.90;;;;;;5129883;27;19980;-70
2024/01/31 13:34:26;;;;;;;;;;;7.30;99.90;;;;;;5113123;27;19919;-70
2024/01/31 13:36:52;;;;;;;;;;;7.20;99.90;;;;;;5108726;27;20430;-70
2024/01/31 13:39:17;;;;;;;;;;;7.20;99.90;;;;;;5111225;27;19927;-70
2024/01/31 13:41:43;;;;;;;;;;;7.20;99.90;;;;;;5112262;27;19976;-70
2024/01/31 13:44:08;;;;;;;;;;;7.20;99.90;;;;;;5129598;27;19935;-70
2024/01/31 13:46:37;;;;;;;;;;;7.20;99.90;;;;;;5111999;27;19924;-70
2024/01/31 13:49:03;;;;;;;;;;;6.90;99.90;;;;;;5112101;27;19923;-71
2024/01/31 13:51:28;;;;;;;;;;;7.20;99.90;;;;;;5109367;27;19932;-72
2024/01/31 13:53:54;;;;;;;;;;;7.20;99.90;;;;;;5108881;27;20423;-70
2024/01/31 13:56:19;;;;;;;;;;;7.20;99.90;;;;;;5111442;27;19923;-70
2024/01/31 13:58:45;;;;;;;;;;;7.20;99.90;;;;;;5110120;27;19927;-70
2024/01/31 14:01:10;;;;;;;;;;;7.20;99.90;;;;;;5112707;27;20349;-71
2024/01/31 14:03:36;;;;;;;;;;;7.30;99.90;;;;;;5112060;27;19927;-70
2024/01/31 14:06:01;;;;;;;;;;;7.30;99.90;;;;;;5129693;27;19931;-71
2024/01/31 14:08:27;;;;;;;;;;;7.20;99.90;;;;;;5112638;28;19976;-70
2024/01/31 14:10:52;;;;;;;;;;;7.20;99.90;;;;;;5111857;28;19924;-71
2024/01/31 14:13:18;;;;;;;;;;;7.20;99.90;;;;;;5128914;28;19940;-70
2024/01/31 14:15:43;;;;;;;;;;;7.20;99.90;;;;;;5109336;28;19964;-70
2024/01/31 14:18:09;;;;;;;;;;;7.20;99.90;;;;;;5129703;28;19949;-70
2024/01/31 14:20:35;;;;;;;;;;;7.20;99.90;;;;;;5111181;28;19930;-70
2024/01/31 14:23:01;;;;;;;;;;;7.10;99.90;;;;;;5111168;28;19928;-70